Terminal Aerodrome Forecast
Issued by NWS

Home | Current Version | Previous Version | Text Only | Print | Product List | Glossary Off
Versions: 1 2 3 4 5 6 7 8 9 10 11 12 13 14 15 16 17 18 19 20 21 22 23 24 25 26 27

000
FTUS43 KABR 271100
TAFATY
TAF
KATY 271120Z 2712/2812 VRB05KT 3SM BR BKN001
      TEMPO 2712/2714 1/2SM FZFG
     FM271600 16013KT P6SM SCT200=

USA.gov is the U.S. government's official web portal to all federal, state and local government web resources and services.